sensor_id;sensor_type;location;lat;lon;timestamp;P1;durP1;ratioP1;P2;durP2;ratioP2
4466;SDS011;2246;42.664;23.278;2022-09-20T00:01:09;2.83;;;1.30;;
4466;SDS011;2246;42.664;23.278;2022-09-20T00:03:36;1.77;;;1.67;;
4466;SDS011;2246;42.664;23.278;2022-09-20T00:06:02;2.22;;;1.50;;
4466;SDS011;2246;42.664;23.278;2022-09-20T00:08:29;2.20;;;1.60;;
4466;SDS011;2246;42.664;23.278;2022-09-20T00:10:59;1.58;;;1.48;;
4466;SDS011;2246;42.664;23.278;2022-09-20T00:13:26;1.75;;;1.65;;
4466;SDS011;2246;42.664;23.278;2022-09-20T00:15:52;2.42;;;1.77;;
4466;SDS011;2246;42.664;23.278;2022-09-20T00:18:19;1.67;;;1.55;;
4466;SDS011;2246;42.664;23.278;2022-09-20T00:20:45;1.50;;;1.40;;
4466;SDS011;2246;42.664;23.278;2022-09-20T00:23:12;2.00;;;1.27;;
4466;SDS011;2246;42.664;23.278;2022-09-20T00:25:38;1.88;;;1.55;;
4466;SDS011;2246;42.664;23.278;2022-09-20T00:28:04;3.33;;;1.70;;
4466;SDS011;2246;42.664;23.278;2022-09-20T00:30:33;2.03;;;1.60;;
4466;SDS011;2246;42.664;23.278;2022-09-20T00:32:59;2.55;;;1.40;;
4466;SDS011;2246;42.664;23.278;2022-09-20T00:35:26;2.65;;;1.30;;
4466;SDS011;2246;42.664;23.278;2022-09-20T00:37:53;2.30;;;1.40;;
4466;SDS011;2246;42.664;23.278;2022-09-20T00:40:20;1.70;;;1.20;;
4466;SDS011;2246;42.664;23.278;2022-09-20T00:42:46;1.48;;;1.30;;
4466;SDS011;2246;42.664;23.278;2022-09-20T00:45:19;1.98;;;1.33;;
4466;SDS011;2246;42.664;23.278;2022-09-20T00:47:54;2.25;;;1.33;;
4466;SDS011;2246;42.664;23.278;2022-09-20T00:50:24;1.20;;;1.10;;
4466;SDS011;2246;42.664;23.278;2022-09-20T00:55:36;2.78;;;1.42;;
4466;SDS011;2246;42.664;23.278;2022-09-20T00:58:03;2.03;;;1.30;;
4466;SDS011;2246;42.664;23.278;2022-09-20T01:00:29;2.03;;;1.40;;
4466;SDS011;2246;42.664;23.278;2022-09-20T01:02:57;1.20;;;1.10;;
4466;SDS011;2246;42.664;23.278;2022-09-20T01:05:24;2.30;;;1.30;;
4466;SDS011;2246;42.664;23.278;2022-09-20T01:07:50;1.60;;;1.10;;
4466;SDS011;2246;42.664;23.278;2022-09-20T01:10:17;1.65;;;1.40;;
4466;SDS011;2246;42.664;23.278;2022-09-20T01:12:43;2.08;;;1.63;;
4466;SDS011;2246;42.664;23.278;2022-09-20T01:15:10;6.10;;;3.33;;
4466;SDS011;2246;42.664;23.278;2022-09-20T01:17:38;3.35;;;2.17;;
4466;SDS011;2246;42.664;23.278;2022-09-20T01:28:03;1.30;;;1.10;;
4466;SDS011;2246;42.664;23.278;2022-09-20T01:30:35;1.00;;;1.00;;
4466;SDS011;2246;42.664;23.278;2022-09-20T01:33:08;1.42;;;1.20;;
4466;SDS011;2246;42.664;23.278;2022-09-20T01:35:36;1.70;;;1.27;;
4466;SDS011;2246;42.664;23.278;2022-09-20T01:38:26;2.75;;;1.40;;
4466;SDS011;2246;42.664;23.278;2022-09-20T01:45:49;2.28;;;1.50;;
4466;SDS011;2246;42.664;23.278;2022-09-20T02:01:57;1.40;;;1.30;;
4466;SDS011;2246;42.664;23.278;2022-09-20T02:09:40;2.10;;;1.52;;
4466;SDS011;2246;42.664;23.278;2022-09-20T02:12:27;1.55;;;1.40;;
4466;SDS011;2246;42.664;23.278;2022-09-20T02:18:45;1.70;;;1.60;;
4466;SDS011;2246;42.664;23.278;2022-09-20T02:26:04;1.73;;;1.45;;
4466;SDS011;2246;42.664;23.278;2022-09-20T02:39:21;3.20;;;1.83;;
4466;SDS011;2246;42.664;23.278;2022-09-20T02:44:23;5.00;;;2.10;;
4466;SDS011;2246;42.664;23.278;2022-09-20T02:46:53;2.42;;;1.85;;
4466;SDS011;2246;42.664;23.278;2022-09-20T02:49:30;1.85;;;1.75;;
4466;SDS011;2246;42.664;23.278;2022-09-20T02:52:01;1.92;;;1.70;;
4466;SDS011;2246;42.664;23.278;2022-09-20T02:57:08;1.75;;;1.60;;
4466;SDS011;2246;42.664;23.278;2022-09-20T03:15:44;3.60;;;1.95;;
4466;SDS011;2246;42.664;23.278;2022-09-20T03:18:18;1.92;;;1.63;;
4466;SDS011;2246;42.664;23.278;2022-09-20T03:33:34;2.10;;;1.52;;
4466;SDS011;2246;42.664;23.278;2022-09-20T03:46:21;3.05;;;2.03;;
4466;SDS011;2246;42.664;23.278;2022-09-20T03:49:35;2.05;;;1.83;;
4466;SDS011;2246;42.664;23.278;2022-09-20T04:02:25;2.10;;;1.70;;
4466;SDS011;2246;42.664;23.278;2022-09-20T04:10:05;2.95;;;1.80;;
4466;SDS011;2246;42.664;23.278;2022-09-20T04:14:48;2.75;;;1.80;;
4466;SDS011;2246;42.664;23.278;2022-09-20T04:17:24;4.78;;;2.05;;
4466;SDS011;2246;42.664;23.278;2022-09-20T04:19:56;18.48;;;7.82;;
4466;SDS011;2246;42.664;23.278;2022-09-20T04:22:23;4.25;;;2.88;;
4466;SDS011;2246;42.664;23.278;2022-09-20T04:25:04;5.77;;;2.53;;
4466;SDS011;2246;42.664;23.278;2022-09-20T04:27:38;2.80;;;2.30;;
4466;SDS011;2246;42.664;23.278;2022-09-20T04:30:08;3.55;;;2.47;;
4466;SDS011;2246;42.664;23.278;2022-09-20T04:38:36;2.92;;;2.40;;
4466;SDS011;2246;42.664;23.278;2022-09-20T04:43:44;7.32;;;2.85;;
4466;SDS011;2246;42.664;23.278;2022-09-20T04:50:09;5.05;;;1.70;;
4466;SDS011;2246;42.664;23.278;2022-09-20T05:00:21;3.33;;;1.63;;
4466;SDS011;2246;42.664;23.278;2022-09-20T05:10:26;6.32;;;2.20;;
4466;SDS011;2246;42.664;23.278;2022-09-20T05:15:36;2.55;;;1.70;;
4466;SDS011;2246;42.664;23.278;2022-09-20T05:31:21;5.35;;;2.33;;
4466;SDS011;2246;42.664;23.278;2022-09-20T05:33:51;2.17;;;1.58;;
4466;SDS011;2246;42.664;23.278;2022-09-20T05:39:00;5.63;;;1.92;;
4466;SDS011;2246;42.664;23.278;2022-09-20T06:00:11;2.95;;;1.88;;
4466;SDS011;2246;42.664;23.278;2022-09-20T06:02:42;3.38;;;1.92;;
4466;SDS011;2246;42.664;23.278;2022-09-20T06:16:11;1.23;;;1.10;;
4466;SDS011;2246;42.664;23.278;2022-09-20T06:20:47;1.00;;;0.95;;
4466;SDS011;2246;42.664;23.278;2022-09-20T06:23:15;1.63;;;0.90;;
4466;SDS011;2246;42.664;23.278;2022-09-20T06:25:43;9.40;;;1.20;;
4466;SDS011;2246;42.664;23.278;2022-09-20T06:30:39;4.00;;;1.52;;
4466;SDS011;2246;42.664;23.278;2022-09-20T06:33:17;3.05;;;0.90;;
4466;SDS011;2246;42.664;23.278;2022-09-20T06:35:51;5.32;;;1.25;;
4466;SDS011;2246;42.664;23.278;2022-09-20T06:41:13;2.33;;;0.90;;
4466;SDS011;2246;42.664;23.278;2022-09-20T06:43:52;2.92;;;0.95;;
4466;SDS011;2246;42.664;23.278;2022-09-20T06:46:18;1.73;;;1.30;;
4466;SDS011;2246;42.664;23.278;2022-09-20T06:48:46;1.30;;;1.20;;
4466;SDS011;2246;42.664;23.278;2022-09-20T06:51:14;1.63;;;1.20;;
4466;SDS011;2246;42.664;23.278;2022-09-20T06:53:40;2.75;;;1.30;;
4466;SDS011;2246;42.664;23.278;2022-09-20T06:56:11;1.30;;;1.15;;
4466;SDS011;2246;42.664;23.278;2022-09-20T06:58:39;1.00;;;0.90;;
4466;SDS011;2246;42.664;23.278;2022-09-20T07:01:05;3.03;;;1.10;;
4466;SDS011;2246;42.664;23.278;2022-09-20T07:03:31;2.45;;;1.13;;
4466;SDS011;2246;42.664;23.278;2022-09-20T07:05:57;3.58;;;1.00;;
4466;SDS011;2246;42.664;23.278;2022-09-20T07:08:28;2.70;;;1.35;;
4466;SDS011;2246;42.664;23.278;2022-09-20T07:10:54;1.77;;;1.08;;
4466;SDS011;2246;42.664;23.278;2022-09-20T07:13:20;1.25;;;0.88;;
4466;SDS011;2246;42.664;23.278;2022-09-20T07:15:46;3.05;;;1.00;;
4466;SDS011;2246;42.664;23.278;2022-09-20T07:18:12;4.90;;;1.15;;
4466;SDS011;2246;42.664;23.278;2022-09-20T07:20:38;1.70;;;1.00;;
4466;SDS011;2246;42.664;23.278;2022-09-20T07:23:11;1.25;;;0.80;;
4466;SDS011;2246;42.664;23.278;2022-09-20T07:25:39;0.93;;;0.80;;
4466;SDS011;2246;42.664;23.278;2022-09-20T07:28:05;1.67;;;1.13;;
4466;SDS011;2246;42.664;23.278;2022-09-20T07:30:31;1.58;;;1.02;;
4466;SDS011;2246;42.664;23.278;2022-09-20T07:32:57;1.40;;;1.10;;
4466;SDS011;2246;42.664;23.278;2022-09-20T07:35:24;1.65;;;1.10;;
4466;SDS011;2246;42.664;23.278;2022-09-20T07:37:54;2.65;;;1.10;;
4466;SDS011;2246;42.664;23.278;2022-09-20T07:40:20;4.78;;;0.77;;
4466;SDS011;2246;42.664;23.278;2022-09-20T07:42:47;6.25;;;2.15;;
4466;SDS011;2246;42.664;23.278;2022-09-20T07:45:13;2.67;;;1.30;;
4466;SDS011;2246;42.664;23.278;2022-09-20T07:47:39;3.65;;;1.50;;
4466;SDS011;2246;42.664;23.278;2022-09-20T07:50:06;4.22;;;1.10;;
4466;SDS011;2246;42.664;23.278;2022-09-20T07:52:33;1.42;;;1.10;;
4466;SDS011;2246;42.664;23.278;2022-09-20T07:54:59;2.60;;;1.00;;
4466;SDS011;2246;42.664;23.278;2022-09-20T07:57:26;2.67;;;1.20;;
4466;SDS011;2246;42.664;23.278;2022-09-20T07:59:52;3.45;;;1.20;;
4466;SDS011;2246;42.664;23.278;2022-09-20T08:02:18;3.53;;;1.23;;
4466;SDS011;2246;42.664;23.278;2022-09-20T08:04:44;2.40;;;1.00;;
4466;SDS011;2246;42.664;23.278;2022-09-20T08:07:11;1.77;;;1.00;;
4466;SDS011;2246;42.664;23.278;2022-09-20T08:09:37;1.20;;;1.02;;
4466;SDS011;2246;42.664;23.278;2022-09-20T08:12:03;4.43;;;1.40;;
4466;SDS011;2246;42.664;23.278;2022-09-20T08:14:29;1.38;;;0.80;;
4466;SDS011;2246;42.664;23.278;2022-09-20T08:16:55;0.85;;;0.60;;
4466;SDS011;2246;42.664;23.278;2022-09-20T08:19:23;1.65;;;0.98;;
4466;SDS011;2246;42.664;23.278;2022-09-20T08:21:49;1.38;;;0.82;;
4466;SDS011;2246;42.664;23.278;2022-09-20T08:24:17;1.60;;;0.80;;
4466;SDS011;2246;42.664;23.278;2022-09-20T08:26:43;0.98;;;0.80;;
4466;SDS011;2246;42.664;23.278;2022-09-20T08:29:10;0.80;;;0.80;;
4466;SDS011;2246;42.664;23.278;2022-09-20T08:34:04;3.28;;;1.05;;
4466;SDS011;2246;42.664;23.278;2022-09-20T08:36:31;2.22;;;0.80;;
4466;SDS011;2246;42.664;23.278;2022-09-20T08:38:58;7.68;;;0.98;;
4466;SDS011;2246;42.664;23.278;2022-09-20T08:43:52;1.70;;;1.10;;
4466;SDS011;2246;42.664;23.278;2022-09-20T08:46:23;2.35;;;1.10;;
4466;SDS011;2246;42.664;23.278;2022-09-20T08:48:51;1.85;;;0.98;;
4466;SDS011;2246;42.664;23.278;2022-09-20T08:51:17;1.80;;;1.00;;
4466;SDS011;2246;42.664;23.278;2022-09-20T08:53:48;2.92;;;1.05;;
4466;SDS011;2246;42.664;23.278;2022-09-20T08:56:14;1.48;;;1.00;;
4466;SDS011;2246;42.664;23.278;2022-09-20T08:58:41;2.08;;;1.10;;
4466;SDS011;2246;42.664;23.278;2022-09-20T09:01:10;1.85;;;0.80;;
4466;SDS011;2246;42.664;23.278;2022-09-20T09:03:38;7.40;;;1.08;;
4466;SDS011;2246;42.664;23.278;2022-09-20T09:06:09;2.80;;;1.08;;
4466;SDS011;2246;42.664;23.278;2022-09-20T09:08:36;1.42;;;0.90;;
4466;SDS011;2246;42.664;23.278;2022-09-20T09:11:04;7.10;;;1.05;;
4466;SDS011;2246;42.664;23.278;2022-09-20T09:17:04;1.55;;;0.88;;
4466;SDS011;2246;42.664;23.278;2022-09-20T09:19:31;1.35;;;0.88;;
4466;SDS011;2246;42.664;23.278;2022-09-20T09:22:01;2.75;;;1.17;;
4466;SDS011;2246;42.664;23.278;2022-09-20T09:24:29;5.20;;;0.80;;
4466;SDS011;2246;42.664;23.278;2022-09-20T09:27:06;1.40;;;0.80;;
4466;SDS011;2246;42.664;23.278;2022-09-20T09:29:33;1.60;;;0.70;;
4466;SDS011;2246;42.664;23.278;2022-09-20T09:32:13;0.98;;;0.60;;
4466;SDS011;2246;42.664;23.278;2022-09-20T09:34:43;0.70;;;0.70;;
4466;SDS011;2246;42.664;23.278;2022-09-20T09:37:46;1.25;;;0.70;;
4466;SDS011;2246;42.664;23.278;2022-09-20T09:40:07;0.65;;;0.65;;
4466;SDS011;2246;42.664;23.278;2022-09-20T09:42:34;0.80;;;0.80;;
4466;SDS011;2246;42.664;23.278;2022-09-20T09:45:12;1.10;;;0.70;;
4466;SDS011;2246;42.664;23.278;2022-09-20T09:47:50;1.38;;;0.57;;
4466;SDS011;2246;42.664;23.278;2022-09-20T09:50:21;0.80;;;0.70;;
4466;SDS011;2246;42.664;23.278;2022-09-20T09:52:58;0.60;;;0.60;;
4466;SDS011;2246;42.664;23.278;2022-09-20T09:55:26;1.75;;;1.05;;
4466;SDS011;2246;42.664;23.278;2022-09-20T09:57:58;1.20;;;1.00;;
4466;SDS011;2246;42.664;23.278;2022-09-20T10:00:28;1.75;;;0.88;;
4466;SDS011;2246;42.664;23.278;2022-09-20T10:03:07;3.05;;;1.00;;
4466;SDS011;2246;42.664;23.278;2022-09-20T10:08:28;1.27;;;0.68;;
4466;SDS011;2246;42.664;23.278;2022-09-20T10:13:46;0.70;;;0.50;;
4466;SDS011;2246;42.664;23.278;2022-09-20T10:19:05;1.23;;;0.63;;
4466;SDS011;2246;42.664;23.278;2022-09-20T10:27:01;4.68;;;0.90;;
4466;SDS011;2246;42.664;23.278;2022-09-20T10:39:53;11.20;;;1.42;;
4466;SDS011;2246;42.664;23.278;2022-09-20T10:42:43;1.15;;;0.90;;
4466;SDS011;2246;42.664;23.278;2022-09-20T10:45:32;1.10;;;0.95;;
4466;SDS011;2246;42.664;23.278;2022-09-20T10:48:03;1.85;;;0.80;;
4466;SDS011;2246;42.664;23.278;2022-09-20T10:50:40;1.00;;;0.90;;
4466;SDS011;2246;42.664;23.278;2022-09-20T11:05:57;4.78;;;1.25;;
4466;SDS011;2246;42.664;23.278;2022-09-20T11:08:28;4.53;;;1.40;;
4466;SDS011;2246;42.664;23.278;2022-09-20T11:10:57;1.30;;;1.20;;
4466;SDS011;2246;42.664;23.278;2022-09-20T11:16:05;3.90;;;1.00;;
4466;SDS011;2246;42.664;23.278;2022-09-20T11:18:36;1.52;;;1.00;;
4466;SDS011;2246;42.664;23.278;2022-09-20T11:21:13;1.40;;;1.02;;
4466;SDS011;2246;42.664;23.278;2022-09-20T11:26:10;2.08;;;1.05;;
4466;SDS011;2246;42.664;23.278;2022-09-20T11:28:39;2.42;;;1.08;;
4466;SDS011;2246;42.664;23.278;2022-09-20T11:31:09;2.67;;;1.30;;
4466;SDS011;2246;42.664;23.278;2022-09-20T11:33:44;1.67;;;0.90;;
4466;SDS011;2246;42.664;23.278;2022-09-20T11:36:16;2.67;;;0.80;;
4466;SDS011;2246;42.664;23.278;2022-09-20T11:41:10;5.75;;;0.80;;
4466;SDS011;2246;42.664;23.278;2022-09-20T11:43:38;0.98;;;0.90;;
4466;SDS011;2246;42.664;23.278;2022-09-20T11:46:09;1.48;;;1.17;;
4466;SDS011;2246;42.664;23.278;2022-09-20T11:48:38;1.13;;;1.02;;
4466;SDS011;2246;42.664;23.278;2022-09-20T11:51:15;1.15;;;0.70;;
4466;SDS011;2246;42.664;23.278;2022-09-20T11:56:18;0.90;;;0.80;;
4466;SDS011;2246;42.664;23.278;2022-09-20T11:58:51;0.90;;;0.70;;
4466;SDS011;2246;42.664;23.278;2022-09-20T12:01:27;0.88;;;0.73;;
4466;SDS011;2246;42.664;23.278;2022-09-20T12:03:55;1.00;;;0.60;;
4466;SDS011;2246;42.664;23.278;2022-09-20T12:08:50;1.33;;;0.70;;
4466;SDS011;2246;42.664;23.278;2022-09-20T12:11:25;2.55;;;0.80;;
4466;SDS011;2246;42.664;23.278;2022-09-20T12:13:54;3.83;;;0.90;;
4466;SDS011;2246;42.664;23.278;2022-09-20T12:16:42;5.45;;;1.10;;
4466;SDS011;2246;42.664;23.278;2022-09-20T12:19:09;1.15;;;0.93;;
4466;SDS011;2246;42.664;23.278;2022-09-20T12:24:20;2.47;;;0.70;;
4466;SDS011;2246;42.664;23.278;2022-09-20T12:26:47;1.15;;;0.73;;
4466;SDS011;2246;42.664;23.278;2022-09-20T12:31:51;0.68;;;0.60;;
4466;SDS011;2246;42.664;23.278;2022-09-20T12:39:20;3.63;;;0.70;;
4466;SDS011;2246;42.664;23.278;2022-09-20T12:41:59;1.67;;;0.80;;
4466;SDS011;2246;42.664;23.278;2022-09-20T13:00:44;2.72;;;0.70;;
4466;SDS011;2246;42.664;23.278;2022-09-20T13:05:46;1.02;;;0.60;;
4466;SDS011;2246;42.664;23.278;2022-09-20T13:08:19;0.75;;;0.70;;
4466;SDS011;2246;42.664;23.278;2022-09-20T13:10:58;1.00;;;0.75;;
4466;SDS011;2246;42.664;23.278;2022-09-20T13:15:51;0.60;;;0.60;;
4466;SDS011;2246;42.664;23.278;2022-09-20T13:18:18;2.47;;;0.70;;
4466;SDS011;2246;42.664;23.278;2022-09-20T13:20:46;0.93;;;0.88;;
4466;SDS011;2246;42.664;23.278;2022-09-20T13:23:20;0.90;;;0.70;;
4466;SDS011;2246;42.664;23.278;2022-09-20T13:25:48;0.90;;;0.80;;
4466;SDS011;2246;42.664;23.278;2022-09-20T13:28:18;0.68;;;0.68;;
4466;SDS011;2246;42.664;23.278;2022-09-20T13:30:46;0.82;;;0.80;;
4466;SDS011;2246;42.664;23.278;2022-09-20T13:35:45;0.68;;;0.68;;
4466;SDS011;2246;42.664;23.278;2022-09-20T13:38:12;2.85;;;0.82;;
4466;SDS011;2246;42.664;23.278;2022-09-20T13:40:39;1.75;;;0.60;;
4466;SDS011;2246;42.664;23.278;2022-09-20T13:43:21;8.20;;;0.60;;
4466;SDS011;2246;42.664;23.278;2022-09-20T13:45:50;1.48;;;0.60;;
4466;SDS011;2246;42.664;23.278;2022-09-20T13:48:17;1.38;;;0.70;;
4466;SDS011;2246;42.664;23.278;2022-09-20T13:50:43;0.60;;;0.60;;
4466;SDS011;2246;42.664;23.278;2022-09-20T13:53:14;2.20;;;0.73;;
4466;SDS011;2246;42.664;23.278;2022-09-20T13:55:40;1.58;;;0.70;;
4466;SDS011;2246;42.664;23.278;2022-09-20T14:00:37;0.63;;;0.60;;
4466;SDS011;2246;42.664;23.278;2022-09-20T14:03:11;1.38;;;0.80;;
4466;SDS011;2246;42.664;23.278;2022-09-20T14:05:43;3.92;;;0.70;;
4466;SDS011;2246;42.664;23.278;2022-09-20T14:08:11;1.33;;;0.73;;
4466;SDS011;2246;42.664;23.278;2022-09-20T14:10:39;0.57;;;0.52;;
4466;SDS011;2246;42.664;23.278;2022-09-20T14:15:37;1.38;;;0.57;;
4466;SDS011;2246;42.664;23.278;2022-09-20T14:18:04;0.80;;;0.80;;
4466;SDS011;2246;42.664;23.278;2022-09-20T14:20:31;3.55;;;0.70;;
4466;SDS011;2246;42.664;23.278;2022-09-20T14:22:59;5.50;;;0.80;;
4466;SDS011;2246;42.664;23.278;2022-09-20T14:25:26;0.70;;;0.60;;
4466;SDS011;2246;42.664;23.278;2022-09-20T14:28:05;1.00;;;0.90;;
4466;SDS011;2246;42.664;23.278;2022-09-20T14:30:33;0.68;;;0.57;;
4466;SDS011;2246;42.664;23.278;2022-09-20T14:33:04;1.88;;;0.70;;
4466;SDS011;2246;42.664;23.278;2022-09-20T14:35:31;2.20;;;0.80;;
4466;SDS011;2246;42.664;23.278;2022-09-20T14:37:58;5.00;;;1.17;;
4466;SDS011;2246;42.664;23.278;2022-09-20T14:40:26;2.53;;;0.90;;
4466;SDS011;2246;42.664;23.278;2022-09-20T14:42:54;1.38;;;0.73;;
4466;SDS011;2246;42.664;23.278;2022-09-20T14:50:30;2.38;;;0.85;;
4466;SDS011;2246;42.664;23.278;2022-09-20T14:55:25;1.88;;;0.93;;
4466;SDS011;2246;42.664;23.278;2022-09-20T14:57:57;0.80;;;0.60;;
4466;SDS011;2246;42.664;23.278;2022-09-20T15:00:23;1.80;;;0.88;;
4466;SDS011;2246;42.664;23.278;2022-09-20T15:02:50;2.83;;;0.80;;
4466;SDS011;2246;42.664;23.278;2022-09-20T15:05:18;0.93;;;0.73;;
4466;SDS011;2246;42.664;23.278;2022-09-20T15:07:45;2.25;;;0.90;;
4466;SDS011;2246;42.664;23.278;2022-09-20T15:10:11;1.10;;;0.80;;
4466;SDS011;2246;42.664;23.278;2022-09-20T15:12:38;1.48;;;0.70;;
4466;SDS011;2246;42.664;23.278;2022-09-20T15:15:04;1.45;;;0.93;;
4466;SDS011;2246;42.664;23.278;2022-09-20T15:17:30;1.23;;;0.80;;
4466;SDS011;2246;42.664;23.278;2022-09-20T15:19:56;3.15;;;0.70;;
4466;SDS011;2246;42.664;23.278;2022-09-20T15:22:23;0.98;;;0.85;;
4466;SDS011;2246;42.664;23.278;2022-09-20T15:24:49;1.65;;;0.82;;
4466;SDS011;2246;42.664;23.278;2022-09-20T15:27:15;0.90;;;0.80;;
4466;SDS011;2246;42.664;23.278;2022-09-20T15:29:41;4.15;;;1.10;;
4466;SDS011;2246;42.664;23.278;2022-09-20T15:32:10;1.17;;;1.00;;
4466;SDS011;2246;42.664;23.278;2022-09-20T15:34:36;2.67;;;0.90;;
4466;SDS011;2246;42.664;23.278;2022-09-20T15:37:02;3.50;;;1.10;;
4466;SDS011;2246;42.664;23.278;2022-09-20T15:39:29;3.58;;;1.00;;
4466;SDS011;2246;42.664;23.278;2022-09-20T15:41:55;1.83;;;0.80;;
4466;SDS011;2246;42.664;23.278;2022-09-20T15:44:21;1.58;;;1.10;;
4466;SDS011;2246;42.664;23.278;2022-09-20T15:46:48;2.25;;;1.10;;
4466;SDS011;2246;42.664;23.278;2022-09-20T15:49:15;1.58;;;1.10;;
4466;SDS011;2246;42.664;23.278;2022-09-20T15:51:41;3.70;;;1.65;;
4466;SDS011;2246;42.664;23.278;2022-09-20T15:54:08;2.00;;;1.20;;
4466;SDS011;2246;42.664;23.278;2022-09-20T15:56:36;2.50;;;1.02;;
4466;SDS011;2246;42.664;23.278;2022-09-20T15:59:05;4.78;;;2.05;;
4466;SDS011;2246;42.664;23.278;2022-09-20T16:01:36;2.58;;;1.23;;
4466;SDS011;2246;42.664;23.278;2022-09-20T16:04:13;3.78;;;1.38;;
4466;SDS011;2246;42.664;23.278;2022-09-20T16:06:40;1.77;;;1.17;;
4466;SDS011;2246;42.664;23.278;2022-09-20T16:09:06;1.80;;;1.40;;
4466;SDS011;2246;42.664;23.278;2022-09-20T16:11:32;2.78;;;1.80;;
4466;SDS011;2246;42.664;23.278;2022-09-20T16:13:59;3.17;;;1.48;;
4466;SDS011;2246;42.664;23.278;2022-09-20T16:16:26;3.10;;;1.75;;
4466;SDS011;2246;42.664;23.278;2022-09-20T16:18:52;5.05;;;1.75;;
4466;SDS011;2246;42.664;23.278;2022-09-20T16:21:37;6.10;;;1.50;;
4466;SDS011;2246;42.664;23.278;2022-09-20T16:24:03;4.00;;;1.33;;
4466;SDS011;2246;42.664;23.278;2022-09-20T16:26:30;3.17;;;1.35;;
4466;SDS011;2246;42.664;23.278;2022-09-20T16:28:58;5.88;;;1.98;;
4466;SDS011;2246;42.664;23.278;2022-09-20T16:31:35;4.47;;;2.40;;
4466;SDS011;2246;42.664;23.278;2022-09-20T16:36:34;4.18;;;1.85;;
4466;SDS011;2246;42.664;23.278;2022-09-20T16:39:00;5.25;;;2.42;;
4466;SDS011;2246;42.664;23.278;2022-09-20T16:41:30;4.93;;;2.10;;
4466;SDS011;2246;42.664;23.278;2022-09-20T16:43:57;3.40;;;1.80;;
4466;SDS011;2246;42.664;23.278;2022-09-20T16:46:24;3.88;;;2.00;;
4466;SDS011;2246;42.664;23.278;2022-09-20T16:48:54;7.22;;;2.92;;
4466;SDS011;2246;42.664;23.278;2022-09-20T16:51:21;3.85;;;2.20;;
4466;SDS011;2246;42.664;23.278;2022-09-20T16:56:21;3.55;;;1.83;;
4466;SDS011;2246;42.664;23.278;2022-09-20T16:58:47;5.00;;;2.15;;
4466;SDS011;2246;42.664;23.278;2022-09-20T17:01:14;5.32;;;2.08;;
4466;SDS011;2246;42.664;23.278;2022-09-20T17:03:41;6.13;;;2.28;;
4466;SDS011;2246;42.664;23.278;2022-09-20T17:06:08;4.25;;;2.40;;
4466;SDS011;2246;42.664;23.278;2022-09-20T17:08:35;5.30;;;2.47;;
4466;SDS011;2246;42.664;23.278;2022-09-20T17:11:05;3.42;;;2.38;;
4466;SDS011;2246;42.664;23.278;2022-09-20T17:13:32;4.53;;;2.53;;
4466;SDS011;2246;42.664;23.278;2022-09-20T17:16:08;6.25;;;2.67;;
4466;SDS011;2246;42.664;23.278;2022-09-20T17:18:35;5.53;;;3.05;;
4466;SDS011;2246;42.664;23.278;2022-09-20T17:21:06;9.15;;;3.08;;
4466;SDS011;2246;42.664;23.278;2022-09-20T17:23:32;5.80;;;3.42;;
4466;SDS011;2246;42.664;23.278;2022-09-20T17:26:05;8.23;;;3.10;;
4466;SDS011;2246;42.664;23.278;2022-09-20T17:28:35;10.02;;;5.78;;
4466;SDS011;2246;42.664;23.278;2022-09-20T17:31:02;6.55;;;3.35;;
4466;SDS011;2246;42.664;23.278;2022-09-20T17:33:28;5.85;;;3.50;;
4466;SDS011;2246;42.664;23.278;2022-09-20T17:35:55;3.17;;;2.33;;
4466;SDS011;2246;42.664;23.278;2022-09-20T17:38:23;6.03;;;2.77;;
4466;SDS011;2246;42.664;23.278;2022-09-20T17:40:57;5.15;;;2.60;;
4466;SDS011;2246;42.664;23.278;2022-09-20T17:43:24;4.25;;;2.25;;
4466;SDS011;2246;42.664;23.278;2022-09-20T17:45:52;6.10;;;2.15;;
4466;SDS011;2246;42.664;23.278;2022-09-20T17:48:20;3.22;;;2.17;;
4466;SDS011;2246;42.664;23.278;2022-09-20T17:50:56;4.83;;;2.57;;
4466;SDS011;2246;42.664;23.278;2022-09-20T17:53:22;4.10;;;2.30;;
4466;SDS011;2246;42.664;23.278;2022-09-20T17:55:54;5.30;;;2.95;;
4466;SDS011;2246;42.664;23.278;2022-09-20T17:58:21;4.90;;;2.47;;
4466;SDS011;2246;42.664;23.278;2022-09-20T18:00:47;4.90;;;2.65;;
4466;SDS011;2246;42.664;23.278;2022-09-20T18:03:13;10.13;;;2.97;;
4466;SDS011;2246;42.664;23.278;2022-09-20T18:05:39;6.47;;;3.35;;
4466;SDS011;2246;42.664;23.278;2022-09-20T18:08:05;3.83;;;2.30;;
4466;SDS011;2246;42.664;23.278;2022-09-20T18:10:31;4.72;;;2.63;;
4466;SDS011;2246;42.664;23.278;2022-09-20T18:12:57;6.75;;;3.13;;
4466;SDS011;2246;42.664;23.278;2022-09-20T18:15:25;4.97;;;3.00;;
4466;SDS011;2246;42.664;23.278;2022-09-20T18:17:51;5.15;;;3.00;;
4466;SDS011;2246;42.664;23.278;2022-09-20T18:20:18;4.63;;;2.90;;
4466;SDS011;2246;42.664;23.278;2022-09-20T18:22:47;4.88;;;2.80;;
4466;SDS011;2246;42.664;23.278;2022-09-20T18:25:13;5.40;;;2.70;;
4466;SDS011;2246;42.664;23.278;2022-09-20T18:27:39;6.00;;;3.22;;
4466;SDS011;2246;42.664;23.278;2022-09-20T18:30:06;5.47;;;3.28;;
4466;SDS011;2246;42.664;23.278;2022-09-20T18:32:32;4.90;;;3.03;;
4466;SDS011;2246;42.664;23.278;2022-09-20T18:34:58;7.97;;;3.25;;
4466;SDS011;2246;42.664;23.278;2022-09-20T18:37:25;4.97;;;2.67;;
4466;SDS011;2246;42.664;23.278;2022-09-20T18:39:51;5.05;;;3.00;;
4466;SDS011;2246;42.664;23.278;2022-09-20T18:42:18;5.55;;;3.50;;
4466;SDS011;2246;42.664;23.278;2022-09-20T18:44:44;5.93;;;3.10;;
4466;SDS011;2246;42.664;23.278;2022-09-20T18:47:10;7.88;;;3.53;;
4466;SDS011;2246;42.664;23.278;2022-09-20T18:49:36;9.27;;;4.63;;
4466;SDS011;2246;42.664;23.278;2022-09-20T18:52:02;9.38;;;5.13;;
4466;SDS011;2246;42.664;23.278;2022-09-20T18:54:28;9.98;;;5.93;;
4466;SDS011;2246;42.664;23.278;2022-09-20T18:56:56;11.40;;;6.93;;
4466;SDS011;2246;42.664;23.278;2022-09-20T18:59:23;11.70;;;7.35;;
4466;SDS011;2246;42.664;23.278;2022-09-20T19:04:24;19.13;;;8.13;;
4466;SDS011;2246;42.664;23.278;2022-09-20T19:07:27;14.35;;;8.32;;
4466;SDS011;2246;42.664;23.278;2022-09-20T19:12:28;13.57;;;6.18;;
4466;SDS011;2246;42.664;23.278;2022-09-20T19:15:04;9.15;;;5.07;;
4466;SDS011;2246;42.664;23.278;2022-09-20T19:20:11;5.55;;;4.07;;
4466;SDS011;2246;42.664;23.278;2022-09-20T19:27:49;4.85;;;3.00;;
4466;SDS011;2246;42.664;23.278;2022-09-20T19:30:17;4.78;;;3.08;;
4466;SDS011;2246;42.664;23.278;2022-09-20T19:32:44;5.53;;;3.00;;
4466;SDS011;2246;42.664;23.278;2022-09-20T19:35:23;7.57;;;2.92;;
4466;SDS011;2246;42.664;23.278;2022-09-20T19:45:39;4.68;;;2.97;;
4466;SDS011;2246;42.664;23.278;2022-09-20T19:50:48;5.80;;;3.33;;
4466;SDS011;2246;42.664;23.278;2022-09-20T19:53:16;4.90;;;3.10;;
4466;SDS011;2246;42.664;23.278;2022-09-20T19:55:45;4.38;;;3.13;;
4466;SDS011;2246;42.664;23.278;2022-09-20T19:58:11;4.75;;;3.28;;
4466;SDS011;2246;42.664;23.278;2022-09-20T20:00:38;7.25;;;3.50;;
4466;SDS011;2246;42.664;23.278;2022-09-20T20:03:04;8.35;;;3.33;;
4466;SDS011;2246;42.664;23.278;2022-09-20T20:05:31;6.53;;;3.42;;
4466;SDS011;2246;42.664;23.278;2022-09-20T20:08:12;4.78;;;3.08;;
4466;SDS011;2246;42.664;23.278;2022-09-20T20:10:56;6.93;;;3.78;;
4466;SDS011;2246;42.664;23.278;2022-09-20T20:19:08;5.60;;;3.00;;
4466;SDS011;2246;42.664;23.278;2022-09-20T20:26:44;3.20;;;2.38;;
4466;SDS011;2246;42.664;23.278;2022-09-20T20:29:10;4.57;;;2.97;;
4466;SDS011;2246;42.664;23.278;2022-09-20T20:31:36;7.22;;;5.10;;
4466;SDS011;2246;42.664;23.278;2022-09-20T20:34:02;9.05;;;5.78;;
4466;SDS011;2246;42.664;23.278;2022-09-20T20:36:29;7.38;;;4.78;;
4466;SDS011;2246;42.664;23.278;2022-09-20T20:38:55;8.70;;;4.93;;
4466;SDS011;2246;42.664;23.278;2022-09-20T20:41:21;6.70;;;4.10;;
4466;SDS011;2246;42.664;23.278;2022-09-20T20:43:50;6.93;;;4.00;;
4466;SDS011;2246;42.664;23.278;2022-09-20T20:46:18;4.43;;;3.28;;
4466;SDS011;2246;42.664;23.278;2022-09-20T20:48:44;5.07;;;3.50;;
4466;SDS011;2246;42.664;23.278;2022-09-20T20:51:12;8.10;;;4.35;;
4466;SDS011;2246;42.664;23.278;2022-09-20T20:53:40;8.05;;;4.25;;
4466;SDS011;2246;42.664;23.278;2022-09-20T20:56:10;9.30;;;4.40;;